createdAt,value
2022-12-08T00:00:48.933Z,84.06
2022-12-08T00:03:52.883Z,84.08
2022-12-08T00:07:15.100Z,83.97
2022-12-08T00:10:47.825Z,84.11
2022-12-08T00:13:44.516Z,83.86
2022-12-08T00:16:47.749Z,83.96
2022-12-08T00:19:53.302Z,83.85
2022-12-08T00:23:14.876Z,83.74
2022-12-08T00:26:17.874Z,83.76
2022-12-08T00:33:59.973Z,83.58
2022-12-08T00:42:10.275Z,83.47
2022-12-08T00:45:13.189Z,83.29
2022-12-08T00:48:16.068Z,83.23
2022-12-08T00:51:44.658Z,83.23
2022-12-08T00:54:49.603Z,83.21
2022-12-08T00:57:52.354Z,83.07
2022-12-08T01:00:55.324Z,82.84
2022-12-08T01:03:58.476Z,83.24
2022-12-08T01:07:02.774Z,83.10
2022-12-08T01:10:07.310Z,83.10
2022-12-08T01:13:11.545Z,83.14
2022-12-08T01:16:26.612Z,82.94
2022-12-08T01:19:30.990Z,83.12
2022-12-08T01:22:35.525Z,83.13
2022-12-08T01:25:38.418Z,83.52
2022-12-08T01:28:43.937Z,83.47
2022-12-08T01:31:47.087Z,83.42
2022-12-08T01:34:52.035Z,83.39
2022-12-08T01:37:54.888Z,83.40
2022-12-08T01:40:57.869Z,83.45
2022-12-08T01:44:24.805Z,83.34
2022-12-08T01:47:36.545Z,83.39
2022-12-08T01:50:42.330Z,83.19
2022-12-08T01:53:49.014Z,83.09
2022-12-08T01:56:59.304Z,83.24
2022-12-08T02:00:09.606Z,83.45
2022-12-08T02:03:18.804Z,83.38
2022-12-08T02:06:23.160Z,83.31
2022-12-08T02:14:13.474Z,83.29
2022-12-08T02:17:49.879Z,83.34
2022-12-08T02:20:52.793Z,83.29
2022-12-08T02:24:28.349Z,82.96
2022-12-08T02:28:06.139Z,83.03
2022-12-08T02:31:21.408Z,82.75
2022-12-08T02:35:00.243Z,83.07
2022-12-08T02:38:27.784Z,82.84
2022-12-08T02:41:40.339Z,82.95
2022-12-08T02:44:59.520Z,82.92
2022-12-08T02:48:02.649Z,82.95
2022-12-08T02:51:05.864Z,82.79
2022-12-08T02:54:34.158Z,82.80
2022-12-08T02:57:49.605Z,82.91
2022-12-08T03:01:11.234Z,82.92
2022-12-08T03:05:08.260Z,83.04
2022-12-08T03:08:25.892Z,82.96
2022-12-08T03:12:10.181Z,83.04
2022-12-08T03:15:19.633Z,83.23
2022-12-08T03:18:32.347Z,83.26
2022-12-08T03:21:38.615Z,83.32
2022-12-08T03:24:45.329Z,83.27
2022-12-08T03:27:49.162Z,83.50
2022-12-08T03:30:56.334Z,83.43
2022-12-08T03:38:42.341Z,83.51
2022-12-08T03:42:30.783Z,83.40
2022-12-08T03:45:33.808Z,83.42
2022-12-08T03:48:41.136Z,83.35
2022-12-08T03:51:44.135Z,83.41
2022-12-08T03:54:47.368Z,83.40
2022-12-08T03:57:51.449Z,83.50
2022-12-08T04:05:43.745Z,83.32
2022-12-08T04:08:47.409Z,83.29
2022-12-08T04:19:46.990Z,83.16
2022-12-08T04:22:49.835Z,83.25
2022-12-08T04:25:55.926Z,83.03
2022-12-08T04:28:58.810Z,82.84
2022-12-08T04:32:02.793Z,83.08
2022-12-08T04:35:05.937Z,82.99
2022-12-08T04:38:08.825Z,82.97
2022-12-08T04:41:11.583Z,83.03
2022-12-08T04:44:14.380Z,83.09
2022-12-08T04:47:17.328Z,82.95
2022-12-08T04:50:20.220Z,83.22
2022-12-08T04:53:23.163Z,83.13
2022-12-08T04:56:25.940Z,83.05
2022-12-08T04:59:32.495Z,83.30
2022-12-08T05:02:36.148Z,83.17
2022-12-08T05:05:39.311Z,82.98
2022-12-08T05:08:43.420Z,83.16
2022-12-08T05:11:49.050Z,83.03
2022-12-08T05:14:52.361Z,83.22
2022-12-08T05:17:55.420Z,83.21
2022-12-08T05:20:58.539Z,83.08
2022-12-08T05:24:01.632Z,83.19
2022-12-08T05:27:04.722Z,83.03
2022-12-08T05:30:07.899Z,83.15
2022-12-08T05:33:11.579Z,83.19
2022-12-08T05:36:38.539Z,83.25
2022-12-08T05:39:41.472Z,83.40
2022-12-08T05:42:44.376Z,83.29
2022-12-08T05:45:47.408Z,83.32
2022-12-08T05:48:50.533Z,83.38
2022-12-08T05:51:53.707Z,83.25
2022-12-08T05:54:56.680Z,83.40
2022-12-08T05:58:04.566Z,83.43
2022-12-08T06:01:28.475Z,83.46
2022-12-08T06:04:31.579Z,83.48
2022-12-08T06:07:34.544Z,83.34
2022-12-08T06:10:42.696Z,83.33
2022-12-08T06:13:45.911Z,83.29
2022-12-08T06:16:48.926Z,83.47
2022-12-08T06:20:09.283Z,83.51
2022-12-08T06:23:12.285Z,83.45
2022-12-08T06:26:16.321Z,83.51
2022-12-08T06:29:19.467Z,83.52
2022-12-08T06:32:27.255Z,83.87
2022-12-08T06:35:55.935Z,83.84
2022-12-08T06:38:58.991Z,83.61
2022-12-08T06:42:20.931Z,83.67
2022-12-08T06:45:23.790Z,83.57
2022-12-08T06:48:27.080Z,83.76
2022-12-08T06:51:29.909Z,84.01
2022-12-08T06:54:32.777Z,83.99
2022-12-08T06:57:37.932Z,83.79
2022-12-08T07:00:41.854Z,84.06
2022-12-08T07:03:44.873Z,84.09
2022-12-08T07:06:51.911Z,84.08
2022-12-08T07:09:54.894Z,84.26
2022-12-08T07:12:57.675Z,84.04
2022-12-08T07:16:00.496Z,84.29
2022-12-08T07:19:03.327Z,84.19
2022-12-08T07:22:08.975Z,84.19
2022-12-08T07:25:11.862Z,84.23
2022-12-08T07:28:14.822Z,84.44
2022-12-08T07:31:23.532Z,84.41
2022-12-08T07:34:27.862Z,84.44
2022-12-08T07:37:30.753Z,84.53
2022-12-08T07:40:33.704Z,84.69
2022-12-08T07:43:36.567Z,84.60
2022-12-08T07:46:39.380Z,84.42
2022-12-08T07:49:42.444Z,84.65
2022-12-08T07:52:45.371Z,84.39
2022-12-08T07:55:48.211Z,84.50
2022-12-08T07:58:51.147Z,84.39
2022-12-08T08:02:20.931Z,84.51
2022-12-08T08:05:16.819Z,84.37
2022-12-08T08:08:19.925Z,84.37
2022-12-08T08:11:23.264Z,84.49
2022-12-08T08:14:26.067Z,84.36
2022-12-08T08:17:31.703Z,84.27
2022-12-08T08:20:35.554Z,84.33
2022-12-08T08:23:41.121Z,84.48
2022-12-08T08:26:43.948Z,84.37
2022-12-08T08:29:46.876Z,84.31
2022-12-08T08:32:50.163Z,84.43
2022-12-08T08:35:53.324Z,84.53
2022-12-08T08:38:56.160Z,84.43
2022-12-08T08:41:59.317Z,84.55
2022-12-08T08:45:02.365Z,84.42
2022-12-08T08:48:05.412Z,84.26
2022-12-08T08:51:11.071Z,84.38
2022-12-08T08:54:13.970Z,84.21
2022-12-08T08:57:20.751Z,84.32
2022-12-08T09:00:28.089Z,84.24
2022-12-08T09:03:30.925Z,84.30
2022-12-08T09:06:33.798Z,84.16
2022-12-08T09:09:36.767Z,84.24
2022-12-08T09:12:39.559Z,84.04
2022-12-08T09:15:42.457Z,84.00
2022-12-08T09:18:45.808Z,84.12
2022-12-08T09:21:48.681Z,84.20
2022-12-08T09:24:51.532Z,84.06
2022-12-08T09:27:54.489Z,84.10
2022-12-08T09:30:57.391Z,84.10
2022-12-08T09:34:00.510Z,84.08
2022-12-08T09:37:03.492Z,84.11
2022-12-08T09:40:07.978Z,83.83
2022-12-08T09:43:53.034Z,83.94
2022-12-08T09:46:59.689Z,84.07
2022-12-08T09:50:12.111Z,83.94
2022-12-08T09:53:21.858Z,84.08
2022-12-08T09:56:31.226Z,84.02
2022-12-08T09:59:35.629Z,83.97
2022-12-08T10:02:38.511Z,83.97
2022-12-08T10:06:03.479Z,83.95
2022-12-08T10:09:24.464Z,83.96
2022-12-08T10:12:39.526Z,84.07
2022-12-08T10:16:07.223Z,84.01
2022-12-08T10:19:25.491Z,83.80
2022-12-08T10:22:37.606Z,83.80
2022-12-08T10:25:52.167Z,83.82
2022-12-08T10:29:01.327Z,83.66
2022-12-08T10:32:21.080Z,83.62
2022-12-08T10:35:26.367Z,83.42
2022-12-08T10:38:36.035Z,83.31
2022-12-08T10:41:40.277Z,83.40
2022-12-08T10:45:04.576Z,83.29
2022-12-08T10:48:30.743Z,83.29
2022-12-08T10:51:34.983Z,83.22
2022-12-08T10:54:42.796Z,83.15
2022-12-08T10:57:46.206Z,83.05
2022-12-08T11:00:52.284Z,83.10
2022-12-08T11:03:59.148Z,83.12
2022-12-08T11:07:04.704Z,82.93
2022-12-08T11:10:19.061Z,83.09
2022-12-08T11:13:27.328Z,82.97
2022-12-08T11:16:31.005Z,82.95
2022-12-08T11:19:40.820Z,82.87
2022-12-08T11:22:46.313Z,82.83
2022-12-08T11:25:50.644Z,82.75
2022-12-08T11:28:53.698Z,82.71
2022-12-08T11:32:03.251Z,82.73
2022-12-08T11:35:08.451Z,82.67
2022-12-08T11:38:23.184Z,82.61
2022-12-08T11:41:39.717Z,82.52
2022-12-08T11:44:49.968Z,82.29
2022-12-08T11:48:04.206Z,82.31
2022-12-08T11:51:22.104Z,82.35
2022-12-08T11:54:41.104Z,82.38
2022-12-08T11:57:45.715Z,82.35
2022-12-08T12:00:50.025Z,82.15
2022-12-08T12:04:16.068Z,81.86
2022-12-08T12:07:29.759Z,81.68
2022-12-08T12:10:50.987Z,81.78
2022-12-08T12:14:18.122Z,81.63
2022-12-08T12:17:23.857Z,81.51
2022-12-08T12:21:21.768Z,81.62
2022-12-08T12:24:36.213Z,81.44
2022-12-08T12:27:40.408Z,81.30
2022-12-08T12:31:03.063Z,81.20
2022-12-08T12:34:29.291Z,81.20
2022-12-08T12:37:42.265Z,81.37
2022-12-08T12:40:45.160Z,81.19
2022-12-08T12:44:14.223Z,81.13
2022-12-08T12:48:03.381Z,81.00
2022-12-08T12:51:38.137Z,81.01
2022-12-08T12:55:05.160Z,80.86
2022-12-08T12:58:19.826Z,80.93
2022-12-08T13:01:22.664Z,80.72
2022-12-08T13:04:36.097Z,80.81
2022-12-08T13:07:48.195Z,80.81
2022-12-08T13:11:04.502Z,80.93
2022-12-08T13:14:26.612Z,81.03
2022-12-08T13:17:33.338Z,80.95
2022-12-08T13:20:47.638Z,81.03
2022-12-08T13:24:10.629Z,81.02
2022-12-08T13:27:13.451Z,81.06
2022-12-08T13:30:46.251Z,81.07
2022-12-08T13:33:49.320Z,81.26
2022-12-08T13:37:01.329Z,81.17
2022-12-08T13:40:30.226Z,81.30
2022-12-08T13:43:55.644Z,81.26
2022-12-08T13:47:32.666Z,81.09
2022-12-08T13:57:32.742Z,81.23
2022-12-08T14:00:36.046Z,81.20
2022-12-08T14:04:21.731Z,81.20
2022-12-08T14:07:14.146Z,81.11
2022-12-08T14:10:24.897Z,81.19
2022-12-08T14:13:29.962Z,81.13
2022-12-08T14:16:41.379Z,81.01
2022-12-08T14:20:13.208Z,81.09
2022-12-08T14:23:17.633Z,81.04
2022-12-08T14:26:20.569Z,81.04
2022-12-08T14:29:50.146Z,80.96
2022-12-08T14:32:56.327Z,80.88
2022-12-08T14:35:59.573Z,80.94
2022-12-08T14:39:02.482Z,80.89
2022-12-08T14:42:42.051Z,80.91
2022-12-08T14:45:44.919Z,80.88
2022-12-08T14:48:47.766Z,80.91
2022-12-08T14:51:50.608Z,80.90
2022-12-08T14:54:54.552Z,80.76
2022-12-08T14:57:57.385Z,80.60
2022-12-08T15:01:01.136Z,80.68
2022-12-08T15:04:12.051Z,80.63
2022-12-08T15:07:16.449Z,80.62
2022-12-08T15:10:27.535Z,80.59
2022-12-08T15:13:30.307Z,80.65
2022-12-08T15:16:36.228Z,80.61
2022-12-08T15:19:40.306Z,80.58
2022-12-08T15:22:43.126Z,80.62
2022-12-08T15:25:46.228Z,80.64
2022-12-08T15:28:49.146Z,80.47
2022-12-08T15:31:54.312Z,80.53
2022-12-08T15:34:57.129Z,80.35
2022-12-08T15:38:00.033Z,80.30
2022-12-08T15:41:02.889Z,80.13
2022-12-08T15:44:06.351Z,80.28
2022-12-08T15:47:18.545Z,80.26
2022-12-08T15:50:23.941Z,80.32
2022-12-08T15:53:31.897Z,80.20
2022-12-08T15:56:41.226Z,80.27
2022-12-08T15:59:58.796Z,80.32
2022-12-08T16:03:27.604Z,80.17
2022-12-08T16:07:12.861Z,80.27
2022-12-08T16:09:50.030Z,80.22
2022-12-08T16:13:56.710Z,80.23
2022-12-08T16:17:01.387Z,80.07
2022-12-08T16:20:07.025Z,80.18
2022-12-08T16:23:42.359Z,80.09
2022-12-08T16:30:18.064Z,79.91
2022-12-08T16:33:21.406Z,79.96
2022-12-08T16:36:24.460Z,79.88
2022-12-08T16:39:27.767Z,79.97
2022-12-08T16:42:46.516Z,79.86
2022-12-08T16:45:49.629Z,79.79
2022-12-08T16:48:52.491Z,79.68
2022-12-08T16:51:55.383Z,79.69
2022-12-08T16:54:58.402Z,79.79
2022-12-08T16:58:02.895Z,79.66
2022-12-08T17:01:10.956Z,79.60
2022-12-08T17:07:37.134Z,79.32
2022-12-08T17:10:41.301Z,79.32
2022-12-08T17:13:44.090Z,79.30
2022-12-08T17:16:47.147Z,79.33
2022-12-08T17:19:50.121Z,79.34
2022-12-08T17:22:59.122Z,79.20
2022-12-08T17:26:02.708Z,79.06
2022-12-08T17:29:05.952Z,78.83
2022-12-08T17:32:09.033Z,78.98
2022-12-08T17:35:13.470Z,78.96
2022-12-08T17:38:17.903Z,78.94
2022-12-08T17:41:20.836Z,78.69
2022-12-08T17:44:23.769Z,78.73
2022-12-08T17:47:26.656Z,78.90
2022-12-08T17:50:29.605Z,78.92
2022-12-08T17:53:37.180Z,78.99
2022-12-08T17:56:45.386Z,78.90
2022-12-08T17:59:48.255Z,78.70
2022-12-08T18:02:51.255Z,78.78
2022-12-08T18:05:54.253Z,78.89
2022-12-08T18:08:59.018Z,78.81
2022-12-08T18:12:01.987Z,78.86
2022-12-08T18:15:08.735Z,78.92
2022-12-08T18:18:11.575Z,79.09
2022-12-08T18:21:19.899Z,78.99
2022-12-08T18:24:26.032Z,79.05
2022-12-08T18:27:29.041Z,79.08
2022-12-08T18:30:31.945Z,79.21
2022-12-08T18:33:34.783Z,79.23
2022-12-08T18:36:37.667Z,79.32
2022-12-08T18:39:41.110Z,79.45
2022-12-08T18:42:44.000Z,79.56
2022-12-08T18:45:46.871Z,79.75
2022-12-08T18:48:54.956Z,79.88
2022-12-08T18:51:57.830Z,79.89
2022-12-08T18:55:08.377Z,80.01
2022-12-08T18:58:11.391Z,80.13
2022-12-08T19:01:14.816Z,80.16
2022-12-08T19:04:28.402Z,80.17
2022-12-08T19:07:31.955Z,80.20
2022-12-08T19:10:38.187Z,80.14
2022-12-08T19:13:40.979Z,80.20
2022-12-08T19:17:09.843Z,80.35
2022-12-08T19:20:13.247Z,80.37
2022-12-08T19:23:16.310Z,80.31
2022-12-08T19:26:19.847Z,80.29
2022-12-08T19:29:22.868Z,80.42
2022-12-08T19:32:26.098Z,80.47
2022-12-08T19:35:28.944Z,80.45
2022-12-08T19:38:51.806Z,80.47
2022-12-08T19:42:13.030Z,80.49
2022-12-08T19:45:21.718Z,80.53
2022-12-08T19:48:25.029Z,80.65
2022-12-08T19:51:30.730Z,80.68
2022-12-08T19:54:33.954Z,80.75
2022-12-08T19:57:36.872Z,80.83
2022-12-08T20:00:40.654Z,80.91
2022-12-08T20:03:43.700Z,80.91
2022-12-08T20:06:46.897Z,80.82
2022-12-08T20:09:49.817Z,80.79
2022-12-08T20:13:12.596Z,80.90
2022-12-08T20:16:16.768Z,80.80
2022-12-08T20:19:19.907Z,80.73
2022-12-08T20:22:22.815Z,80.60
2022-12-08T20:25:25.637Z,80.65
2022-12-08T20:28:28.504Z,80.75
2022-12-08T20:31:32.662Z,80.80
2022-12-08T20:34:35.782Z,80.81
2022-12-08T20:37:41.510Z,80.89
2022-12-08T20:40:46.500Z,80.92
2022-12-08T20:43:49.929Z,81.00
2022-12-08T20:46:52.874Z,81.01
2022-12-08T20:49:55.723Z,81.02
2022-12-08T20:52:58.796Z,81.03
2022-12-08T20:56:01.674Z,81.10
2022-12-08T20:59:04.638Z,81.08
2022-12-08T21:02:10.844Z,81.13
2022-12-08T21:05:14.303Z,81.18
2022-12-08T21:08:19.609Z,81.28
2022-12-08T21:11:22.797Z,81.33
2022-12-08T21:14:25.833Z,81.57
2022-12-08T21:17:29.014Z,81.49
2022-12-08T21:20:32.122Z,81.60
2022-12-08T21:23:35.327Z,81.47
2022-12-08T21:26:38.566Z,81.56
2022-12-08T21:29:41.682Z,81.57
2022-12-08T21:32:44.686Z,81.47
2022-12-08T21:35:47.869Z,81.29
2022-12-08T21:38:51.297Z,81.21
2022-12-08T21:42:12.764Z,81.32
2022-12-08T21:45:18.065Z,81.15
2022-12-08T21:48:21.198Z,81.19
2022-12-08T21:51:25.178Z,81.15
2022-12-08T21:54:28.399Z,81.15
2022-12-08T21:57:31.644Z,81.09
2022-12-08T22:00:35.012Z,81.00
2022-12-08T22:03:40.078Z,81.03
2022-12-08T22:06:43.429Z,81.12
2022-12-08T22:09:47.865Z,81.32
2022-12-08T22:12:50.802Z,81.16
2022-12-08T22:16:02.703Z,81.04
2022-12-08T22:19:05.727Z,81.12
2022-12-08T22:22:08.735Z,81.24
2022-12-08T22:25:12.172Z,81.17
2022-12-08T22:28:15.271Z,81.32
2022-12-08T22:31:21.111Z,81.19
2022-12-08T22:34:23.970Z,81.21
2022-12-08T22:37:26.803Z,81.35
2022-12-08T22:40:29.597Z,81.29
2022-12-08T22:43:32.960Z,81.25
2022-12-08T22:46:36.078Z,81.39
2022-12-08T22:49:38.873Z,81.44
2022-12-08T22:52:41.728Z,81.33
2022-12-08T22:55:45.490Z,81.38
2022-12-08T22:58:48.490Z,81.54
2022-12-08T23:01:51.475Z,81.43
2022-12-08T23:04:57.667Z,81.45
2022-12-08T23:08:01.387Z,81.55
2022-12-08T23:11:04.323Z,81.43
2022-12-08T23:14:07.096Z,81.57
2022-12-08T23:17:10.138Z,81.65
2022-12-08T23:20:13.420Z,81.75
2022-12-08T23:23:16.226Z,81.91
2022-12-08T23:26:24.999Z,81.82
2022-12-08T23:29:27.898Z,81.83
2022-12-08T23:32:30.698Z,81.86
2022-12-08T23:35:33.642Z,81.79
2022-12-08T23:38:36.908Z,82.00
2022-12-08T23:41:39.748Z,81.88
2022-12-08T23:44:42.580Z,81.91
2022-12-08T23:47:45.584Z,81.61
2022-12-08T23:50:48.512Z,81.63
2022-12-08T23:53:51.382Z,81.63
2022-12-08T23:56:54.214Z,81.72
2022-12-08T23:59:57.052Z,81.53
